Time;durP1;ratioP1;P1;durP2;ratioP2;P2;SDS_P1;SDS_P2;PMS_P1;PMS_P2;Temp;Humidity;BMP_temperature;BMP_pressure;BME280_temperature;BME280_humidity;BME280_pressure;Samples;Min_cycle;Max_cycle;Signal;HPM_P1;HPM_P2
2022/07/22 00:00:51;;;;;;;7.95;3.80;;;;;;;;;;5049917;28;20048;-75
2022/07/22 00:03:16;;;;;;;6.53;3.33;;;;;;;;;;5050007;28;20100;-76
2022/07/22 00:05:42;;;;;;;6.43;3.78;;;;;;;;;;5050132;28;20025;-75
2022/07/22 00:08:07;;;;;;;5.30;3.53;;;;;;;;;;5049578;28;20073;-74
2022/07/22 00:10:32;;;;;;;5.43;3.58;;;;;;;;;;5050321;28;20085;-74
2022/07/22 00:12:58;;;;;;;6.18;3.80;;;;;;;;;;5050203;28;20449;-78
2022/07/22 00:15:23;;;;;;;10.55;3.92;;;;;;;;;;5050148;28;20440;-73
2022/07/22 00:17:49;;;;;;;5.75;3.47;;;;;;;;;;5049864;28;20684;-74
2022/07/22 00:20:14;;;;;;;7.32;3.53;;;;;;;;;;5049730;28;20036;-75
2022/07/22 00:22:40;;;;;;;7.47;3.80;;;;;;;;;;5049809;28;20196;-75
2022/07/22 00:25:06;;;;;;;7.65;4.07;;;;;;;;;;5049731;28;20033;-76
2022/07/22 00:27:31;;;;;;;6.68;3.63;;;;;;;;;;5049618;28;20029;-75
2022/07/22 00:29:57;;;;;;;7.15;4.22;;;;;;;;;;5049550;28;20027;-75
2022/07/22 00:32:22;;;;;;;8.93;4.30;;;;;;;;;;5049720;28;20023;-75
2022/07/22 00:34:48;;;;;;;6.90;4.05;;;;;;;;;;5049669;28;20021;-74
2022/07/22 00:37:13;;;;;;;8.60;4.03;;;;;;;;;;5049601;28;20520;-74
2022/07/22 00:39:38;;;;;;;7.70;4.10;;;;;;;;;;5049499;28;20021;-74
2022/07/22 00:42:04;;;;;;;11.25;4.18;;;;;;;;;;5049439;28;20377;-75
2022/07/22 00:44:30;;;;;;;7.65;4.65;;;;;;;;;;5049233;28;20025;-75
2022/07/22 00:46:55;;;;;;;11.45;4.57;;;;;;;;;;5049865;28;20272;-75
2022/07/22 00:49:20;;;;;;;8.20;4.35;;;;;;;;;;5049151;28;20452;-74
2022/07/22 00:51:46;;;;;;;8.02;4.40;;;;;;;;;;5049227;28;20029;-74
2022/07/22 00:54:12;;;;;;;7.47;4.90;;;;;;;;;;5049414;28;20092;-75
2022/07/22 00:56:38;;;;;;;9.13;4.90;;;;;;;;;;5049233;28;20117;-75
2022/07/22 00:59:07;;;;;;;11.98;4.93;;;;;;;;;;5049102;28;20056;-74
2022/07/22 01:01:33;;;;;;;8.23;4.75;;;;;;;;;;5049045;28;20076;-75
2022/07/22 01:03:59;;;;;;;7.97;4.93;;;;;;;;;;5049143;28;20072;-74
2022/07/22 01:06:24;;;;;;;8.52;4.80;;;;;;;;;;5049140;28;20476;-75
2022/07/22 01:08:50;;;;;;;6.75;4.72;;;;;;;;;;5048685;28;20104;-75
2022/07/22 01:11:17;;;;;;;10.38;4.50;;;;;;;;;;5048277;28;20033;-74
2022/07/22 01:13:44;;;;;;;6.90;4.53;;;;;;;;;;5048969;28;20108;-76
2022/07/22 01:16:11;;;;;;;9.85;4.90;;;;;;;;;;5048720;28;20033;-74
2022/07/22 01:18:37;;;;;;;9.52;4.70;;;;;;;;;;5048730;28;20120;-74
2022/07/22 01:21:04;;;;;;;8.82;4.53;;;;;;;;;;5048884;28;20078;-74
2022/07/22 01:23:30;;;;;;;9.73;4.75;;;;;;;;;;5049056;28;20033;-75
2022/07/22 01:25:55;;;;;;;8.93;4.43;;;;;;;;;;5048973;28;20385;-77
2022/07/22 01:28:21;;;;;;;8.52;4.55;;;;;;;;;;5048991;28;20032;-74
2022/07/22 01:30:46;;;;;;;10.18;4.50;;;;;;;;;;5048722;28;20058;-75
2022/07/22 01:33:12;;;;;;;8.00;4.65;;;;;;;;;;5048586;28;20033;-75
2022/07/22 01:35:38;;;;;;;12.13;4.82;;;;;;;;;;5048654;28;20029;-74
2022/07/22 01:38:03;;;;;;;7.53;4.55;;;;;;;;;;5048443;28;20029;-74
2022/07/22 01:40:29;;;;;;;9.50;5.13;;;;;;;;;;5048966;28;20392;-75
2022/07/22 01:42:54;;;;;;;8.52;4.78;;;;;;;;;;5048624;28;20056;-75
2022/07/22 01:45:19;;;;;;;7.55;4.38;;;;;;;;;;5048660;28;20025;-75
2022/07/22 01:47:45;;;;;;;7.82;4.88;;;;;;;;;;5048461;28;20037;-75
2022/07/22 01:50:11;;;;;;;8.95;4.72;;;;;;;;;;5048340;28;20391;-74
2022/07/22 01:52:38;;;;;;;10.15;4.55;;;;;;;;;;5048518;28;20469;-74
2022/07/22 01:55:08;;;;;;;7.90;4.47;;;;;;;;;;5048305;28;20085;-74
2022/07/22 01:57:36;;;;;;;10.57;4.75;;;;;;;;;;5048770;28;20403;-75
2022/07/22 02:00:03;;;;;;;7.88;4.80;;;;;;;;;;5048153;28;20033;-75
2022/07/22 02:02:28;;;;;;;8.57;4.30;;;;;;;;;;5048225;28;20033;-74
2022/07/22 02:04:54;;;;;;;8.18;4.30;;;;;;;;;;5048168;28;20077;-75
2022/07/22 02:07:19;;;;;;;7.65;4.57;;;;;;;;;;5048098;28;20033;-74
2022/07/22 02:09:45;;;;;;;11.07;4.70;;;;;;;;;;5047954;28;20095;-75
2022/07/22 02:12:10;;;;;;;12.15;4.57;;;;;;;;;;5047998;28;20082;-75
2022/07/22 02:14:36;;;;;;;7.15;4.15;;;;;;;;;;5047969;28;20029;-74
2022/07/22 02:17:01;;;;;;;10.25;4.30;;;;;;;;;;5048079;28;20057;-74
2022/07/22 02:19:27;;;;;;;7.57;4.30;;;;;;;;;;5047822;28;20029;-74
2022/07/22 02:21:53;;;;;;;9.38;4.15;;;;;;;;;;5047432;28;20524;-76
2022/07/22 02:24:18;;;;;;;7.63;4.20;;;;;;;;;;5047640;28;20025;-74
2022/07/22 02:26:43;;;;;;;7.43;4.05;;;;;;;;;;5048190;28;20052;-74
2022/07/22 02:29:09;;;;;;;8.48;3.95;;;;;;;;;;5046198;28;20562;-74
2022/07/22 02:31:34;;;;;;;8.65;4.13;;;;;;;;;;5047609;28;20496;-73
2022/07/22 02:34:00;;;;;;;6.72;3.90;;;;;;;;;;5048016;28;20033;-72
2022/07/22 02:36:25;;;;;;;6.07;3.60;;;;;;;;;;5047668;28;20060;-73
2022/07/22 02:38:51;;;;;;;6.00;3.85;;;;;;;;;;5047917;28;20033;-73
2022/07/22 02:41:17;;;;;;;6.57;3.55;;;;;;;;;;5047717;28;20036;-74
2022/07/22 02:43:42;;;;;;;7.10;3.83;;;;;;;;;;5047342;28;20032;-74
2022/07/22 02:46:08;;;;;;;7.65;3.70;;;;;;;;;;5046254;28;20032;-72
2022/07/22 02:48:33;;;;;;;6.47;3.58;;;;;;;;;;5047531;28;20158;-73
2022/07/22 02:50:59;;;;;;;5.68;3.70;;;;;;;;;;5047449;28;20027;-74
2022/07/22 02:53:24;;;;;;;5.90;3.88;;;;;;;;;;5047825;28;20400;-74
2022/07/22 02:55:50;;;;;;;5.43;3.70;;;;;;;;;;5047517;28;20028;-73
2022/07/22 02:58:15;;;;;;;6.25;3.85;;;;;;;;;;5047508;28;20025;-75
2022/07/22 03:00:41;;;;;;;6.47;3.60;;;;;;;;;;5047220;28;20408;-74
2022/07/22 03:03:07;;;;;;;7.47;3.67;;;;;;;;;;5047158;28;20056;-73
2022/07/22 03:05:32;;;;;;;7.50;3.70;;;;;;;;;;5047331;28;20029;-73
2022/07/22 03:07:58;;;;;;;7.57;3.75;;;;;;;;;;5047233;28;20521;-73
2022/07/22 03:10:23;;;;;;;7.70;4.20;;;;;;;;;;5047598;28;20087;-73
2022/07/22 03:12:49;;;;;;;9.88;4.15;;;;;;;;;;5045993;28;20081;-73
2022/07/22 03:15:14;;;;;;;8.38;4.30;;;;;;;;;;5047460;28;20033;-73
2022/07/22 03:17:39;;;;;;;7.85;3.90;;;;;;;;;;5045762;28;20516;-73
2022/07/22 03:20:07;;;;;;;6.85;4.50;;;;;;;;;;5047033;28;20081;-73
2022/07/22 03:22:33;;;;;;;8.35;4.53;;;;;;;;;;5047196;28;20112;-75
2022/07/22 03:24:59;;;;;;;10.23;4.25;;;;;;;;;;5047351;28;20548;-75
2022/07/22 03:27:25;;;;;;;10.00;4.50;;;;;;;;;;5047015;28;20029;-74
2022/07/22 03:29:50;;;;;;;10.02;4.50;;;;;;;;;;5046913;28;20598;-74
2022/07/22 03:32:16;;;;;;;9.27;4.57;;;;;;;;;;5046919;28;20081;-73
2022/07/22 03:34:41;;;;;;;12.23;4.80;;;;;;;;;;5050268;28;20025;-74
2022/07/22 03:37:07;;;;;;;6.82;4.35;;;;;;;;;;5050454;28;20465;-72
2022/07/22 03:39:32;;;;;;;7.65;4.57;;;;;;;;;;5050276;28;20432;-73
2022/07/22 03:41:58;;;;;;;9.85;4.32;;;;;;;;;;5050434;28;20496;-73
2022/07/22 03:44:23;;;;;;;12.25;4.13;;;;;;;;;;5050393;28;20093;-73
2022/07/22 03:46:49;;;;;;;9.00;4.40;;;;;;;;;;5049160;28;20040;-73
2022/07/22 03:49:14;;;;;;;6.95;4.30;;;;;;;;;;5050294;28;20057;-73
2022/07/22 03:51:40;;;;;;;9.65;4.40;;;;;;;;;;5048976;28;20025;-74
2022/07/22 03:54:05;;;;;;;10.75;4.63;;;;;;;;;;5050330;28;20040;-74
2022/07/22 03:56:31;;;;;;;10.88;4.45;;;;;;;;;;5050101;28;20060;-73
2022/07/22 03:58:56;;;;;;;7.63;4.28;;;;;;;;;;5050116;28;20044;-73
2022/07/22 04:01:22;;;;;;;8.95;4.78;;;;;;;;;;5049882;28;20136;-74
2022/07/22 04:03:48;;;;;;;10.07;4.75;;;;;;;;;;5050129;28;20054;-74
2022/07/22 04:06:14;;;;;;;8.73;4.70;;;;;;;;;;5050049;28;20491;-74
2022/07/22 04:08:39;;;;;;;7.85;4.50;;;;;;;;;;5049900;28;20029;-74
2022/07/22 04:11:05;;;;;;;8.07;4.25;;;;;;;;;;5049862;28;20029;-73
2022/07/22 04:13:30;;;;;;;8.93;4.55;;;;;;;;;;5050020;28;20485;-73
2022/07/22 04:15:56;;;;;;;10.73;4.32;;;;;;;;;;5050217;28;20488;-73
2022/07/22 04:18:21;;;;;;;9.27;4.70;;;;;;;;;;5050046;28;20548;-73
2022/07/22 04:20:47;;;;;;;11.07;4.95;;;;;;;;;;5049674;28;20487;-74
2022/07/22 04:23:12;;;;;;;8.88;4.60;;;;;;;;;;5049941;28;20029;-75
2022/07/22 04:25:38;;;;;;;7.40;4.40;;;;;;;;;;5049758;28;20507;-76
2022/07/22 04:28:04;;;;;;;14.18;4.88;;;;;;;;;;5049580;28;20476;-77
2022/07/22 04:30:29;;;;;;;7.57;4.50;;;;;;;;;;5049647;28;20032;-76
2022/07/22 04:32:55;;;;;;;8.95;4.38;;;;;;;;;;5049526;28;20536;-75
2022/07/22 04:35:20;;;;;;;9.65;4.65;;;;;;;;;;5049655;28;20544;-77
2022/07/22 04:37:45;;;;;;;12.90;4.97;;;;;;;;;;5049966;28;20032;-74
2022/07/22 04:40:11;;;;;;;9.23;4.80;;;;;;;;;;5049601;28;20086;-73
2022/07/22 04:42:37;;;;;;;9.82;4.30;;;;;;;;;;5049481;28;20065;-73
2022/07/22 04:45:03;;;;;;;7.55;4.53;;;;;;;;;;5049392;28;20028;-76
2022/07/22 04:47:28;;;;;;;7.72;4.47;;;;;;;;;;5049341;28;20373;-77
2022/07/22 04:49:53;;;;;;;11.23;4.60;;;;;;;;;;5049194;28;20142;-77
2022/07/22 04:52:19;;;;;;;10.98;4.57;;;;;;;;;;5049250;28;20104;-76
2022/07/22 04:54:44;;;;;;;8.77;4.20;;;;;;;;;;5049527;28;20089;-76
2022/07/22 04:57:10;;;;;;;10.13;4.90;;;;;;;;;;5049343;28;20036;-77
2022/07/22 04:59:35;;;;;;;9.07;4.45;;;;;;;;;;5049149;28;20231;-75
2022/07/22 05:02:01;;;;;;;7.85;4.30;;;;;;;;;;5049504;28;20071;-76
2022/07/22 05:04:26;;;;;;;12.95;4.38;;;;;;;;;;5049060;28;20035;-75
2022/07/22 05:06:52;;;;;;;7.85;4.18;;;;;;;;;;5049277;28;20029;-75
2022/07/22 05:09:17;;;;;;;9.43;4.50;;;;;;;;;;5049168;28;20197;-74
2022/07/22 05:11:43;;;;;;;9.38;4.00;;;;;;;;;;5048976;28;20033;-75
2022/07/22 05:14:08;;;;;;;8.13;4.20;;;;;;;;;;5049203;28;20109;-74
2022/07/22 05:16:37;;;;;;;8.07;4.35;;;;;;;;;;5048986;28;20033;-74
2022/07/22 05:19:02;;;;;;;10.73;4.25;;;;;;;;;;5048896;28;20037;-74
2022/07/22 05:21:28;;;;;;;10.98;4.32;;;;;;;;;;5048593;28;20404;-76
2022/07/22 05:23:53;;;;;;;8.23;3.88;;;;;;;;;;5048612;28;20033;-74
2022/07/22 05:26:19;;;;;;;8.20;4.00;;;;;;;;;;5048741;28;20491;-74
2022/07/22 05:28:44;;;;;;;7.90;4.05;;;;;;;;;;5048994;28;20033;-73
2022/07/22 05:31:10;;;;;;;7.18;4.32;;;;;;;;;;5048655;28;20384;-74
2022/07/22 05:33:35;;;;;;;8.45;4.20;;;;;;;;;;5048893;28;20485;-76
2022/07/22 05:36:02;;;;;;;9.57;3.97;;;;;;;;;;5048757;28;20021;-75
2022/07/22 05:38:28;;;;;;;17.50;4.50;;;;;;;;;;5048696;28;20025;-74
2022/07/22 05:40:53;;;;;;;7.55;4.20;;;;;;;;;;5048665;28;20025;-74
2022/07/22 05:43:18;;;;;;;8.65;4.10;;;;;;;;;;5048270;28;20119;-74
2022/07/22 05:45:44;;;;;;;7.70;4.40;;;;;;;;;;5048855;28;20032;-76
2022/07/22 05:48:09;;;;;;;10.77;4.55;;;;;;;;;;5048694;28;20009;-75
2022/07/22 05:50:35;;;;;;;8.00;4.30;;;;;;;;;;5048201;28;20028;-74
2022/07/22 05:53:01;;;;;;;10.95;4.40;;;;;;;;;;5048282;28;20021;-75
2022/07/22 05:55:26;;;;;;;10.60;4.18;;;;;;;;;;5047817;28;20065;-74
2022/07/22 05:57:52;;;;;;;10.15;4.53;;;;;;;;;;5046813;28;20031;-74
2022/07/22 06:00:17;;;;;;;10.02;4.13;;;;;;;;;;5047827;28;20033;-74
2022/07/22 06:02:43;;;;;;;9.63;4.32;;;;;;;;;;5048498;28;20055;-76
2022/07/22 06:05:08;;;;;;;13.93;4.65;;;;;;;;;;5048229;28;20025;-74
2022/07/22 06:07:34;;;;;;;8.57;4.32;;;;;;;;;;5048099;28;20028;-74
2022/07/22 06:09:59;;;;;;;8.38;4.20;;;;;;;;;;5047992;28;20155;-74
2022/07/22 06:12:24;;;;;;;12.07;4.50;;;;;;;;;;5048080;28;20032;-74
2022/07/22 06:14:50;;;;;;;12.65;4.35;;;;;;;;;;5048089;28;20026;-74
2022/07/22 06:17:15;;;;;;;12.45;4.40;;;;;;;;;;5048002;28;20104;-74
2022/07/22 06:19:41;;;;;;;9.80;4.32;;;;;;;;;;5047963;28;20104;-74
2022/07/22 06:22:06;;;;;;;12.43;4.45;;;;;;;;;;5047706;28;20028;-74
2022/07/22 06:24:32;;;;;;;9.45;4.43;;;;;;;;;;5047902;28;20024;-74
2022/07/22 06:26:57;;;;;;;9.98;4.75;;;;;;;;;;5047901;28;20028;-74
2022/07/22 06:29:22;;;;;;;11.07;4.65;;;;;;;;;;5048002;28;20021;-75
2022/07/22 06:31:48;;;;;;;9.77;4.38;;;;;;;;;;5047913;28;20378;-74
2022/07/22 06:34:14;;;;;;;14.98;4.65;;;;;;;;;;5047897;28;20370;-74
2022/07/22 06:36:39;;;;;;;10.38;4.50;;;;;;;;;;5047637;28;20053;-74
2022/07/22 06:39:05;;;;;;;10.35;4.45;;;;;;;;;;5047698;28;20437;-73
2022/07/22 06:41:30;;;;;;;12.05;4.75;;;;;;;;;;5047745;28;20032;-73
2022/07/22 06:43:56;;;;;;;13.55;4.43;;;;;;;;;;5047477;28;20028;-73
2022/07/22 06:46:21;;;;;;;16.42;5.25;;;;;;;;;;5047725;28;20021;-73
2022/07/22 06:48:47;;;;;;;11.95;4.80;;;;;;;;;;5047486;28;20081;-73
2022/07/22 06:51:12;;;;;;;13.13;4.70;;;;;;;;;;5047224;28;20294;-73
2022/07/22 06:53:38;;;;;;;11.40;4.70;;;;;;;;;;5047441;28;20532;-74
2022/07/22 06:56:04;;;;;;;14.02;4.97;;;;;;;;;;5047575;28;20037;-73
2022/07/22 06:58:29;;;;;;;13.32;4.95;;;;;;;;;;5047452;28;20032;-74
2022/07/22 07:00:54;;;;;;;20.35;5.20;;;;;;;;;;5047186;28;20070;-73
2022/07/22 07:03:21;;;;;;;13.13;4.60;;;;;;;;;;5047605;28;20033;-73
2022/07/22 07:05:47;;;;;;;14.65;4.65;;;;;;;;;;5047199;28;20477;-77
2022/07/22 07:08:12;;;;;;;14.80;4.47;;;;;;;;;;5045884;28;20044;-77
2022/07/22 07:10:37;;;;;;;12.40;4.70;;;;;;;;;;5047109;28;20526;-77
2022/07/22 07:13:03;;;;;;;10.13;4.40;;;;;;;;;;5047366;28;20032;-75
2022/07/22 07:15:28;;;;;;;13.27;4.45;;;;;;;;;;5047314;28;20492;-73
2022/07/22 07:17:56;;;;;;;14.02;5.10;;;;;;;;;;5047283;28;20100;-74
2022/07/22 07:20:22;;;;;;;12.02;4.65;;;;;;;;;;5047103;28;20032;-74
2022/07/22 07:22:47;;;;;;;10.93;4.82;;;;;;;;;;5046672;28;20025;-74
2022/07/22 07:25:13;;;;;;;11.65;4.50;;;;;;;;;;5046910;28;20040;-75
2022/07/22 07:27:39;;;;;;;12.93;4.93;;;;;;;;;;5047130;28;20028;-74
2022/07/22 07:30:06;;;;;;;14.00;4.90;;;;;;;;;;5047111;28;20033;-75
2022/07/22 07:32:31;;;;;;;10.38;4.95;;;;;;;;;;5046859;28;20104;-77
2022/07/22 07:34:57;;;;;;;13.30;4.65;;;;;;;;;;5047062;28;20125;-74
2022/07/22 07:37:23;;;;;;;13.40;4.88;;;;;;;;;;5046853;28;20388;-73
2022/07/22 07:39:48;;;;;;;13.02;4.70;;;;;;;;;;5046866;28;20029;-75
2022/07/22 07:42:13;;;;;;;14.40;4.53;;;;;;;;;;5046506;28;20025;-74
2022/07/22 07:44:39;;;;;;;16.83;5.03;;;;;;;;;;5045506;28;20037;-74
2022/07/22 07:47:05;;;;;;;12.52;4.57;;;;;;;;;;5046756;28;20524;-73
2022/07/22 07:49:30;;;;;;;10.45;4.32;;;;;;;;;;5046809;28;20029;-73
2022/07/22 07:51:55;;;;;;;10.95;4.50;;;;;;;;;;5046395;28;20488;-73
2022/07/22 07:54:21;;;;;;;11.60;4.25;;;;;;;;;;5046856;28;20063;-76
2022/07/22 07:56:46;;;;;;;12.25;4.60;;;;;;;;;;5046684;28;20274;-74
2022/07/22 07:59:12;;;;;;;14.82;4.72;;;;;;;;;;5046616;28;20045;-75
2022/07/22 08:01:38;;;;;;;12.68;4.40;;;;;;;;;;5046195;28;20126;-75
2022/07/22 08:04:04;;;;;;;13.40;4.88;;;;;;;;;;5046431;28;20033;-75
2022/07/22 08:06:29;;;;;;;11.63;4.88;;;;;;;;;;5046423;28;20030;-75
2022/07/22 08:08:55;;;;;;;12.18;4.47;;;;;;;;;;5046494;28;20033;-75
2022/07/22 08:11:20;;;;;;;14.50;4.90;;;;;;;;;;5046735;28;20138;-75
2022/07/22 08:13:46;;;;;;;11.60;4.82;;;;;;;;;;5046581;28;20025;-74
2022/07/22 08:16:11;;;;;;;13.48;4.72;;;;;;;;;;5046322;28;20183;-73
2022/07/22 08:18:37;;;;;;;10.73;4.68;;;;;;;;;;5046454;28;20400;-73
2022/07/22 08:21:02;;;;;;;14.55;4.80;;;;;;;;;;5048263;28;20021;-74
2022/07/22 08:23:28;;;;;;;11.27;4.43;;;;;;;;;;5049664;28;20116;-75
2022/07/22 08:25:53;;;;;;;11.75;4.78;;;;;;;;;;5049804;28;20037;-77
2022/07/22 08:28:18;;;;;;;14.32;5.10;;;;;;;;;;5049931;28;20021;-74
2022/07/22 08:30:44;;;;;;;11.52;4.80;;;;;;;;;;5049818;28;20025;-74
2022/07/22 08:33:10;;;;;;;14.05;4.60;;;;;;;;;;5049541;28;20286;-73
2022/07/22 08:35:35;;;;;;;10.98;4.68;;;;;;;;;;5049561;28;20060;-74
2022/07/22 08:38:01;;;;;;;12.35;4.35;;;;;;;;;;5049906;28;20183;-74
2022/07/22 08:40:26;;;;;;;12.38;4.60;;;;;;;;;;5048195;28;20025;-74
2022/07/22 08:42:52;;;;;;;10.45;4.43;;;;;;;;;;5049318;28;20081;-74
2022/07/22 08:45:18;;;;;;;12.23;4.72;;;;;;;;;;5049502;28;20040;-73
2022/07/22 08:47:49;;;;;;;17.38;5.00;;;;;;;;;;5049406;28;20120;-74
2022/07/22 08:50:15;;;;;;;12.45;4.50;;;;;;;;;;5049424;28;20017;-72
2022/07/22 08:52:41;;;;;;;10.65;4.32;;;;;;;;;;5049240;28;20530;-73
2022/07/22 08:55:08;;;;;;;10.82;4.60;;;;;;;;;;5049311;28;20108;-73
2022/07/22 08:57:33;;;;;;;9.95;4.45;;;;;;;;;;5049281;28;20611;-74
2022/07/22 09:00:00;;;;;;;13.20;4.68;;;;;;;;;;5049414;28;20179;-75
2022/07/22 09:02:26;;;;;;;14.75;5.05;;;;;;;;;;5049343;28;20064;-74
2022/07/22 09:04:57;;;;;;;10.15;4.60;;;;;;;;;;5049186;28;20037;-73
2022/07/22 09:07:34;;;;;;;9.80;4.53;;;;;;;;;;5049097;28;20061;-74
2022/07/22 09:10:01;;;;;;;9.32;4.63;;;;;;;;;;5048990;28;20021;-73
2022/07/22 09:12:32;;;;;;;11.02;4.90;;;;;;;;;;5048921;28;20025;-75
2022/07/22 09:14:59;;;;;;;12.63;4.80;;;;;;;;;;5049659;28;20112;-74
2022/07/22 09:17:34;;;;;;;11.13;5.30;;;;;;;;;;5047690;28;20120;-75
2022/07/22 09:20:00;;;;;;;12.90;4.95;;;;;;;;;;5049103;28;20302;-74
2022/07/22 09:22:34;;;;;;;8.60;5.05;;;;;;;;;;5048636;28;20028;-75
2022/07/22 09:25:39;;;;;;;9.95;4.90;;;;;;;;;;5048750;28;20033;-73
2022/07/22 09:28:05;;;;;;;11.77;4.85;;;;;;;;;;5047623;28;20464;-74
2022/07/22 09:30:30;;;;;;;9.93;4.32;;;;;;;;;;5048034;28;20053;-74
2022/07/22 09:32:56;;;;;;;11.75;5.32;;;;;;;;;;5048656;28;20362;-75
2022/07/22 09:35:22;;;;;;;11.55;4.68;;;;;;;;;;5048739;28;20068;-74
2022/07/22 09:37:55;;;;;;;8.05;4.50;;;;;;;;;;5048655;28;20057;-74
2022/07/22 09:40:26;;;;;;;11.20;4.90;;;;;;;;;;5047318;28;20021;-77
2022/07/22 09:42:57;;;;;;;10.20;4.70;;;;;;;;;;5048673;28;20028;-76
2022/07/22 09:45:25;;;;;;;14.75;4.90;;;;;;;;;;5048268;28;20038;-75
2022/07/22 09:47:51;;;;;;;9.25;4.68;;;;;;;;;;5048467;28;20032;-73
2022/07/22 09:50:21;;;;;;;9.77;4.28;;;;;;;;;;5048761;28;20105;-73
2022/07/22 09:52:48;;;;;;;10.60;4.57;;;;;;;;;;5048279;28;20021;-73
2022/07/22 09:55:15;;;;;;;8.57;4.80;;;;;;;;;;5048588;28;20056;-74
2022/07/22 09:57:41;;;;;;;10.15;4.60;;;;;;;;;;5048309;28;20029;-75
2022/07/22 10:00:09;;;;;;;10.95;4.63;;;;;;;;;;5048678;28;20021;-75
2022/07/22 10:02:45;;;;;;;9.52;4.70;;;;;;;;;;5048171;28;20048;-74
2022/07/22 10:05:12;;;;;;;11.23;4.45;;;;;;;;;;5048091;28;20084;-75
2022/07/22 10:07:43;;;;;;;11.80;4.68;;;;;;;;;;5048437;28;20029;-74
2022/07/22 10:10:11;;;;;;;7.57;4.25;;;;;;;;;;5048274;28;20043;-74
2022/07/22 10:12:38;;;;;;;9.82;4.55;;;;;;;;;;5047926;28;20029;-74
2022/07/22 10:15:04;;;;;;;9.65;4.43;;;;;;;;;;5046671;28;20037;-76
2022/07/22 10:17:30;;;;;;;11.00;4.88;;;;;;;;;;5047935;28;20101;-75
2022/07/22 10:19:57;;;;;;;12.70;4.30;;;;;;;;;;5048016;28;20029;-74
2022/07/22 10:22:45;;;;;;;8.18;4.30;;;;;;;;;;5047461;28;20025;-76
2022/07/22 10:25:12;;;;;;;7.28;4.60;;;;;;;;;;5047834;28;20538;-74
2022/07/22 10:27:50;;;;;;;12.00;4.78;;;;;;;;;;5048098;28;20051;-73
2022/07/22 10:30:19;;;;;;;8.45;4.10;;;;;;;;;;5046564;28;20159;-74
2022/07/22 10:32:45;;;;;;;11.00;4.60;;;;;;;;;;5047632;28;20025;-73
2022/07/22 10:35:10;;;;;;;11.88;4.25;;;;;;;;;;5047629;28;20021;-74
2022/07/22 10:37:43;;;;;;;8.52;4.25;;;;;;;;;;5047426;28;20051;-73
2022/07/22 10:40:08;;;;;;;12.02;4.63;;;;;;;;;;5046318;28;20025;-74
2022/07/22 10:43:08;;;;;;;8.52;4.47;;;;;;;;;;5047501;28;20028;-72
2022/07/22 10:45:43;;;;;;;9.70;4.80;;;;;;;;;;5047556;28;20032;-74
2022/07/22 10:48:14;;;;;;;10.45;4.72;;;;;;;;;;5047720;28;20025;-73
2022/07/22 10:50:42;;;;;;;9.90;4.50;;;;;;;;;;5047508;28;20033;-73
2022/07/22 10:53:08;;;;;;;11.82;4.30;;;;;;;;;;5047124;28;20029;-74
2022/07/22 10:55:34;;;;;;;10.43;4.18;;;;;;;;;;5047337;28;20112;-76
2022/07/22 10:58:00;;;;;;;10.77;4.45;;;;;;;;;;5047340;28;20052;-77
2022/07/22 11:00:26;;;;;;;14.35;4.30;;;;;;;;;;5045936;28;20064;-77
2022/07/22 11:02:52;;;;;;;10.82;4.28;;;;;;;;;;5047217;28;20033;-78
2022/07/22 11:05:29;;;;;;;9.45;4.25;;;;;;;;;;5047321;28;20041;-77
2022/07/22 11:07:54;;;;;;;8.35;4.82;;;;;;;;;;5046949;28;20029;-77
2022/07/22 11:10:21;;;;;;;15.20;4.60;;;;;;;;;;5047145;28;20035;-76
2022/07/22 11:12:47;;;;;;;10.20;4.15;;;;;;;;;;5046802;28;20354;-77
2022/07/22 11:15:13;;;;;;;11.52;4.60;;;;;;;;;;5047201;28;20158;-78
2022/07/22 11:17:39;;;;;;;13.57;4.40;;;;;;;;;;5046972;28;20234;-77
2022/07/22 11:20:08;;;;;;;8.40;4.60;;;;;;;;;;5047153;28;20493;-74
2022/07/22 11:22:33;;;;;;;11.90;4.70;;;;;;;;;;5045338;28;20098;-75
2022/07/22 11:25:05;;;;;;;9.65;4.57;;;;;;;;;;5046960;28;20302;-75
2022/07/22 11:27:30;;;;;;;9.88;4.60;;;;;;;;;;5046978;28;20025;-76
2022/07/22 11:29:57;;;;;;;8.88;4.47;;;;;;;;;;5046983;28;20376;-75
2022/07/22 11:32:26;;;;;;;13.23;5.10;;;;;;;;;;5046688;28;20364;-75
2022/07/22 11:34:51;;;;;;;9.30;4.55;;;;;;;;;;5046892;28;20485;-76
2022/07/22 11:37:19;;;;;;;10.65;4.65;;;;;;;;;;5046914;28;20089;-77
2022/07/22 11:39:46;;;;;;;9.00;4.35;;;;;;;;;;5046919;28;20017;-77
2022/07/22 11:42:12;;;;;;;9.77;4.20;;;;;;;;;;5046835;28;20553;-77
2022/07/22 11:44:39;;;;;;;16.08;4.70;;;;;;;;;;5046582;28;20049;-78
2022/07/22 11:47:07;;;;;;;9.38;4.40;;;;;;;;;;5046767;28;20061;-78
2022/07/22 11:49:35;;;;;;;9.02;4.32;;;;;;;;;;5047135;28;20501;-79
2022/07/22 11:52:07;;;;;;;13.25;4.15;;;;;;;;;;5046719;28;20025;-74
2022/07/22 11:54:33;;;;;;;6.50;3.80;;;;;;;;;;5048428;28;20032;-79
2022/07/22 11:56:58;;;;;;;11.77;4.28;;;;;;;;;;5050270;28;20028;-75
2022/07/22 11:59:24;;;;;;;10.18;3.90;;;;;;;;;;5050430;28;20036;-78
2022/07/22 12:01:49;;;;;;;12.60;4.53;;;;;;;;;;5049996;28;20071;-77
2022/07/22 12:04:18;;;;;;;7.28;3.83;;;;;;;;;;5049731;28;20109;-78
2022/07/22 12:06:45;;;;;;;12.60;4.40;;;;;;;;;;5050020;28;20072;-78
2022/07/22 12:09:12;;;;;;;8.57;3.80;;;;;;;;;;5050174;28;20025;-79
2022/07/22 12:11:41;;;;;;;9.27;4.05;;;;;;;;;;5049932;28;20044;-75
2022/07/22 12:14:10;;;;;;;10.05;3.90;;;;;;;;;;5049911;28;20032;-76
2022/07/22 12:16:36;;;;;;;9.30;4.05;;;;;;;;;;5049811;28;20040;-75
2022/07/22 12:19:07;;;;;;;9.10;3.55;;;;;;;;;;5049930;28;20021;-76
2022/07/22 12:21:49;;;;;;;7.68;3.70;;;;;;;;;;5049592;28;20029;-75
2022/07/22 12:24:15;;;;;;;9.13;3.90;;;;;;;;;;5049524;28;20081;-75
2022/07/22 12:26:48;;;;;;;10.63;4.00;;;;;;;;;;5049656;28;20029;-77
2022/07/22 12:29:20;;;;;;;9.20;3.80;;;;;;;;;;5049711;28;20033;-75
2022/07/22 12:31:51;;;;;;;11.18;3.85;;;;;;;;;;5049584;28;20124;-75
2022/07/22 12:34:28;;;;;;;7.15;3.75;;;;;;;;;;5049597;28;20399;-75
2022/07/22 12:36:53;;;;;;;10.82;3.65;;;;;;;;;;5049520;28;20457;-75
2022/07/22 12:39:19;;;;;;;8.63;3.75;;;;;;;;;;5049639;28;20104;-75
2022/07/22 12:41:46;;;;;;;9.63;3.70;;;;;;;;;;5049414;28;20063;-74
2022/07/22 12:44:21;;;;;;;10.15;3.60;;;;;;;;;;5049299;28;20488;-75
2022/07/22 12:46:48;;;;;;;9.02;3.88;;;;;;;;;;5049649;28;20033;-75
2022/07/22 12:49:16;;;;;;;10.52;3.97;;;;;;;;;;5049854;28;20029;-76
2022/07/22 12:51:42;;;;;;;10.38;3.92;;;;;;;;;;5049616;28;20035;-74
2022/07/22 12:54:07;;;;;;;11.35;3.90;;;;;;;;;;5049109;28;20021;-75
2022/07/22 12:56:33;;;;;;;8.20;3.70;;;;;;;;;;5049358;28;20112;-75
2022/07/22 12:58:59;;;;;;;8.60;3.60;;;;;;;;;;5049260;28;20020;-74
2022/07/22 13:01:24;;;;;;;8.38;3.78;;;;;;;;;;5049026;28;20064;-77
2022/07/22 13:03:50;;;;;;;8.10;3.55;;;;;;;;;;5049071;28;20025;-74
2022/07/22 13:06:15;;;;;;;9.73;3.95;;;;;;;;;;5047825;28;20025;-75
2022/07/22 13:08:40;;;;;;;12.45;3.90;;;;;;;;;;5049212;28;20247;-74
2022/07/22 13:11:06;;;;;;;11.02;4.13;;;;;;;;;;5047836;28;20399;-74
2022/07/22 13:13:31;;;;;;;7.28;3.85;;;;;;;;;;5048788;28;20503;-75
2022/07/22 13:15:57;;;;;;;9.02;3.85;;;;;;;;;;5048968;28;20073;-75
2022/07/22 13:18:22;;;;;;;9.70;3.95;;;;;;;;;;5049463;28;20108;-76
2022/07/22 13:20:48;;;;;;;11.25;4.13;;;;;;;;;;5048681;28;20025;-74
2022/07/22 13:23:13;;;;;;;10.55;3.90;;;;;;;;;;5049115;28;20032;-74
2022/07/22 13:25:39;;;;;;;8.25;3.80;;;;;;;;;;5048802;28;20029;-73
2022/07/22 13:28:04;;;;;;;7.78;3.90;;;;;;;;;;5048975;28;20104;-73
2022/07/22 13:30:30;;;;;;;9.48;3.90;;;;;;;;;;5048812;28;20117;-74
2022/07/22 13:32:55;;;;;;;10.27;3.78;;;;;;;;;;5048295;28;20028;-75
2022/07/22 13:35:21;;;;;;;6.82;3.90;;;;;;;;;;5048717;28;20029;-75
2022/07/22 13:37:47;;;;;;;8.20;3.90;;;;;;;;;;5048500;28;20484;-74
2022/07/22 13:40:13;;;;;;;8.93;3.92;;;;;;;;;;5048958;28;20026;-73
2022/07/22 13:42:38;;;;;;;8.48;4.05;;;;;;;;;;5048681;28;20446;-74
2022/07/22 13:45:05;;;;;;;12.35;4.22;;;;;;;;;;5048277;28;20025;-73
2022/07/22 13:47:31;;;;;;;8.60;3.90;;;;;;;;;;5048494;28;20025;-77
2022/07/22 13:49:56;;;;;;;8.82;4.00;;;;;;;;;;5048347;28;20046;-75
2022/07/22 13:52:22;;;;;;;8.85;4.10;;;;;;;;;;5048251;28;20021;-76
2022/07/22 13:54:49;;;;;;;11.45;4.22;;;;;;;;;;5048262;28;20149;-73
2022/07/22 13:57:15;;;;;;;11.20;4.28;;;;;;;;;;5047102;28;20021;-73
2022/07/22 13:59:40;;;;;;;9.10;4.38;;;;;;;;;;5048265;28;20025;-74
2022/07/22 14:02:06;;;;;;;11.20;4.78;;;;;;;;;;5048204;28;20041;-74
2022/07/22 14:04:31;;;;;;;9.48;4.30;;;;;;;;;;5048044;28;20124;-73
2022/07/22 14:06:57;;;;;;;13.13;4.60;;;;;;;;;;5046751;28;20018;-73
2022/07/22 14:09:22;;;;;;;7.20;4.10;;;;;;;;;;5048046;28;20100;-73
2022/07/22 14:11:48;;;;;;;10.05;4.55;;;;;;;;;;5048281;28;20037;-73
2022/07/22 14:14:13;;;;;;;12.77;4.32;;;;;;;;;;5046815;28;20100;-73
2022/07/22 14:16:39;;;;;;;7.30;4.25;;;;;;;;;;5047671;28;20528;-73
2022/07/22 14:19:06;;;;;;;10.95;4.70;;;;;;;;;;5047955;28;20395;-74
2022/07/22 14:21:32;;;;;;;6.70;4.03;;;;;;;;;;5047601;28;20047;-72
2022/07/22 14:23:57;;;;;;;10.52;4.60;;;;;;;;;;5047484;28;20029;-76
2022/07/22 14:26:23;;;;;;;10.88;4.63;;;;;;;;;;5047958;28;20052;-74
2022/07/22 14:28:49;;;;;;;6.75;4.60;;;;;;;;;;5047958;28;20021;-74
2022/07/22 14:31:15;;;;;;;10.23;4.57;;;;;;;;;;5047828;28;20078;-74